createdAt,value
2023-02-26T00:00:30.612Z,4.38
2023-02-26T00:03:00.218Z,4.31
2023-02-26T00:05:37.810Z,4.40
2023-02-26T00:08:07.444Z,4.53
2023-02-26T00:10:37.278Z,4.43
2023-02-26T00:13:07.112Z,4.43
2023-02-26T00:15:38.870Z,4.16
2023-02-26T00:18:17.029Z,4.28
2023-02-26T00:20:48.214Z,4.25
2023-02-26T00:23:26.956Z,4.26
2023-02-26T00:25:56.249Z,4.06
2023-02-26T00:28:27.121Z,4.04
2023-02-26T00:31:04.472Z,4.11
2023-02-26T00:33:34.658Z,4.30
2023-02-26T00:36:28.331Z,4.28
2023-02-26T00:39:13.042Z,4.22
2023-02-26T00:41:47.554Z,4.12
2023-02-26T00:44:26.601Z,3.90
2023-02-26T00:46:59.888Z,4.12
2023-02-26T00:49:42.248Z,4.28
2023-02-26T00:52:24.560Z,4.01
2023-02-26T00:54:59.531Z,4.20
2023-02-26T00:57:28.566Z,3.94
2023-02-26T01:00:05.093Z,4.23
2023-02-26T01:02:34.844Z,4.35
2023-02-26T01:05:13.860Z,4.31
2023-02-26T01:07:53.588Z,3.88
2023-02-26T01:10:27.459Z,4.10
2023-02-26T01:13:05.902Z,4.06
2023-02-26T01:15:43.840Z,3.89
2023-02-26T01:18:17.341Z,3.94
2023-02-26T01:20:54.114Z,3.96
2023-02-26T01:23:28.940Z,3.88
2023-02-26T01:26:00.896Z,3.97
2023-02-26T01:28:34.334Z,3.82
2023-02-26T01:31:07.188Z,3.81
2023-02-26T01:33:44.855Z,3.98
2023-02-26T01:36:24.405Z,3.87
2023-02-26T01:39:14.589Z,3.73
2023-02-26T01:41:48.473Z,4.01
2023-02-26T01:44:24.390Z,3.66
2023-02-26T01:47:06.077Z,3.76
2023-02-26T01:49:47.587Z,3.94
2023-02-26T01:53:08.880Z,3.54
2023-02-26T01:55:39.626Z,3.71
2023-02-26T01:58:07.770Z,3.92
2023-02-26T02:00:40.792Z,3.94
2023-02-26T02:03:11.601Z,3.97
2023-02-26T02:05:46.356Z,3.57
2023-02-26T02:08:22.280Z,3.72
2023-02-26T02:10:53.695Z,3.72
2023-02-26T02:13:39.520Z,3.79
2023-02-26T02:16:21.508Z,3.57
2023-02-26T02:18:57.570Z,3.59
2023-02-26T02:22:12.994Z,3.72
2023-02-26T02:24:54.439Z,3.50
2023-02-26T02:27:35.133Z,3.43
2023-02-26T02:30:18.481Z,3.56
2023-02-26T02:33:03.936Z,3.77
2023-02-26T02:35:39.827Z,3.30
2023-02-26T02:38:17.412Z,3.35
2023-02-26T02:40:59.280Z,3.52
2023-02-26T02:43:32.937Z,3.75
2023-02-26T02:46:07.501Z,3.47
2023-02-26T02:48:51.514Z,3.58
2023-02-26T02:51:26.773Z,3.54
2023-02-26T02:54:02.910Z,3.50
2023-02-26T02:56:41.547Z,3.48
2023-02-26T02:59:19.022Z,3.49
2023-02-26T03:01:51.986Z,3.47
2023-02-26T03:04:38.695Z,3.49
2023-02-26T03:07:18.761Z,3.31
2023-02-26T03:09:48.617Z,3.51
2023-02-26T03:12:23.977Z,3.54
2023-02-26T03:14:53.726Z,3.59
2023-02-26T03:17:30.024Z,3.51
2023-02-26T03:20:10.676Z,3.44
2023-02-26T03:22:43.964Z,3.43
2023-02-26T03:25:22.842Z,3.62
2023-02-26T03:27:56.258Z,3.48
2023-02-26T03:30:31.817Z,3.37
2023-02-26T03:33:05.486Z,3.64
2023-02-26T03:35:39.597Z,3.64
2023-02-26T03:38:15.133Z,3.47
2023-02-26T03:40:48.392Z,3.54
2023-02-26T03:43:21.433Z,3.51
2023-02-26T03:45:53.033Z,3.50
2023-02-26T03:48:32.525Z,3.42
2023-02-26T03:51:12.703Z,3.62
2023-02-26T03:54:10.282Z,3.49
2023-02-26T03:56:54.493Z,3.64
2023-02-26T03:59:45.873Z,3.56
2023-02-26T04:02:40.910Z,3.45
2023-02-26T04:05:26.989Z,3.57
2023-02-26T04:07:59.133Z,3.71
2023-02-26T04:10:40.444Z,3.45
2023-02-26T04:13:12.626Z,3.23
2023-02-26T04:15:49.205Z,3.48
2023-02-26T04:18:21.309Z,3.28
2023-02-26T04:20:53.702Z,3.25
2023-02-26T04:23:27.755Z,3.44
2023-02-26T04:25:59.966Z,3.09
2023-02-26T04:28:31.301Z,3.05
2023-02-26T04:31:04.703Z,3.33
2023-02-26T04:33:33.381Z,3.18
2023-02-26T04:36:05.446Z,3.57
2023-02-26T04:38:47.002Z,3.23
2023-02-26T04:41:15.256Z,3.25
2023-02-26T04:43:45.530Z,3.49
2023-02-26T04:46:36.644Z,3.38
2023-02-26T04:49:11.274Z,3.31
2023-02-26T04:51:44.985Z,3.29
2023-02-26T04:54:33.925Z,3.48
2023-02-26T04:57:04.953Z,3.34
2023-02-26T04:59:45.875Z,3.13
2023-02-26T05:02:15.928Z,3.20
2023-02-26T05:04:52.529Z,2.78
2023-02-26T05:07:23.646Z,2.72
2023-02-26T05:10:01.865Z,2.77
2023-02-26T05:12:36.229Z,2.75
2023-02-26T05:15:12.929Z,2.80
2023-02-26T05:17:49.757Z,2.85
2023-02-26T05:20:24.477Z,2.79
2023-02-26T05:22:55.583Z,2.89
2023-02-26T05:25:37.785Z,2.80
2023-02-26T05:28:06.519Z,2.73
2023-02-26T05:30:38.224Z,2.53
2023-02-26T05:33:13.400Z,2.73
2023-02-26T05:35:47.776Z,2.68
2023-02-26T05:38:18.834Z,2.60
2023-02-26T05:40:57.636Z,2.50
2023-02-26T05:43:30.609Z,2.34
2023-02-26T05:46:04.408Z,2.60
2023-02-26T05:48:33.412Z,2.56
2023-02-26T05:51:07.373Z,2.64
2023-02-26T05:53:41.012Z,2.71
2023-02-26T05:56:13.337Z,2.70
2023-02-26T05:58:47.004Z,2.65
2023-02-26T06:01:18.750Z,2.68
2023-02-26T06:03:48.584Z,2.58
2023-02-26T06:06:21.369Z,2.52
2023-02-26T06:08:58.373Z,2.49
2023-02-26T06:11:34.281Z,2.36
2023-02-26T06:17:10.303Z,2.32
2023-02-26T06:19:44.727Z,2.30
2023-02-26T06:22:16.229Z,2.60
2023-02-26T06:24:51.106Z,2.82
2023-02-26T06:27:32.447Z,2.68
2023-02-26T06:30:03.944Z,2.61
2023-02-26T06:32:39.003Z,2.69
2023-02-26T06:35:12.036Z,2.68
2023-02-26T06:37:43.025Z,2.73
2023-02-26T06:40:12.697Z,2.82
2023-02-26T06:42:50.807Z,2.91
2023-02-26T06:45:21.855Z,2.88
2023-02-26T06:48:00.231Z,2.80
2023-02-26T06:50:39.103Z,2.56
2023-02-26T06:53:13.069Z,2.63
2023-02-26T06:55:47.319Z,2.85
2023-02-26T06:58:18.664Z,2.92
2023-02-26T07:00:48.640Z,2.98
2023-02-26T07:03:22.212Z,2.97
2023-02-26T07:05:57.321Z,2.83
2023-02-26T07:08:31.402Z,2.96
2023-02-26T07:11:00.396Z,2.89
2023-02-26T07:13:31.385Z,2.66
2023-02-26T07:16:01.188Z,2.66
2023-02-26T07:18:49.067Z,2.63
2023-02-26T07:21:20.852Z,2.49
2023-02-26T07:23:53.188Z,2.92
2023-02-26T07:26:22.091Z,2.77
2023-02-26T07:28:56.603Z,2.75
2023-02-26T07:31:31.795Z,2.82
2023-02-26T07:34:02.008Z,2.83
2023-02-26T07:36:39.267Z,3.04
2023-02-26T07:39:08.927Z,2.89
2023-02-26T07:41:40.155Z,3.14
2023-02-26T07:44:19.439Z,3.05
2023-02-26T07:46:53.008Z,3.18
2023-02-26T07:49:28.488Z,3.22
2023-02-26T07:51:59.860Z,3.40
2023-02-26T07:54:31.547Z,3.43
2023-02-26T07:57:05.517Z,3.32
2023-02-26T07:59:40.828Z,3.35
2023-02-26T08:02:21.496Z,3.35
2023-02-26T08:04:55.632Z,3.37
2023-02-26T08:07:36.504Z,3.58
2023-02-26T08:10:08.963Z,3.58
2023-02-26T08:12:38.844Z,3.44
2023-02-26T08:15:18.017Z,3.67
2023-02-26T08:17:47.482Z,3.60
2023-02-26T08:20:19.160Z,3.53
2023-02-26T08:22:52.778Z,3.62
2023-02-26T08:25:29.933Z,3.44
2023-02-26T08:27:58.902Z,3.60
2023-02-26T08:30:32.389Z,3.70
2023-02-26T08:33:03.850Z,3.96
2023-02-26T08:35:35.197Z,3.69
2023-02-26T08:38:07.313Z,3.92
2023-02-26T08:40:38.023Z,3.58
2023-02-26T08:43:06.598Z,3.80
2023-02-26T08:45:39.090Z,3.74
2023-02-26T08:48:10.655Z,4.00
2023-02-26T08:50:41.542Z,3.76
2023-02-26T08:53:16.489Z,3.87
2023-02-26T08:55:54.991Z,3.88
2023-02-26T08:58:32.298Z,4.12
2023-02-26T09:01:06.006Z,3.88
2023-02-26T09:03:37.980Z,3.74
2023-02-26T09:06:08.940Z,3.92
2023-02-26T09:08:38.514Z,3.91
2023-02-26T09:11:07.541Z,4.07
2023-02-26T09:13:37.051Z,3.87
2023-02-26T09:16:08.972Z,4.03
2023-02-26T09:18:40.627Z,3.94
2023-02-26T09:21:12.291Z,4.12
2023-02-26T09:23:43.296Z,4.16
2023-02-26T09:26:25.147Z,4.15
2023-02-26T09:29:03.005Z,4.18
2023-02-26T09:31:37.033Z,3.79
2023-02-26T09:34:11.715Z,3.86
2023-02-26T09:36:48.645Z,3.84
2023-02-26T09:39:25.564Z,4.20
2023-02-26T09:42:01.099Z,4.07
2023-02-26T09:44:35.561Z,3.85
2023-02-26T09:47:17.136Z,4.04
2023-02-26T09:49:55.119Z,4.17
2023-02-26T09:52:27.462Z,4.43
2023-02-26T09:55:03.986Z,4.29
2023-02-26T09:57:41.754Z,4.47
2023-02-26T10:00:24.799Z,4.41
2023-02-26T10:03:17.943Z,4.50
2023-02-26T10:06:00.859Z,4.74
2023-02-26T10:08:34.827Z,4.87
2023-02-26T10:11:09.089Z,4.63
2023-02-26T10:13:56.658Z,4.99
2023-02-26T10:16:34.629Z,4.80
2023-02-26T10:19:22.498Z,4.87
2023-02-26T10:21:56.171Z,5.15
2023-02-26T10:24:32.449Z,5.12
2023-02-26T10:27:12.030Z,5.02
2023-02-26T10:29:47.572Z,4.83
2023-02-26T10:32:27.312Z,4.95
2023-02-26T10:35:10.906Z,4.79
2023-02-26T10:37:54.856Z,4.85
2023-02-26T10:40:29.647Z,4.65
2023-02-26T10:43:01.364Z,4.71
2023-02-26T10:45:47.252Z,4.76
2023-02-26T10:48:29.800Z,4.85
2023-02-26T10:51:14.483Z,4.53
2023-02-26T10:53:56.521Z,4.80
2023-02-26T10:56:30.026Z,5.19
2023-02-26T10:59:04.050Z,4.80
2023-02-26T11:01:42.032Z,4.91
2023-02-26T11:04:20.555Z,4.79
2023-02-26T11:07:07.222Z,4.82
2023-02-26T11:09:44.258Z,4.82
2023-02-26T11:12:26.168Z,5.06
2023-02-26T11:15:02.611Z,5.02
2023-02-26T11:17:34.026Z,4.98
2023-02-26T11:20:11.904Z,5.15
2023-02-26T11:22:54.170Z,5.23
2023-02-26T11:25:26.618Z,4.94
2023-02-26T11:28:02.447Z,4.65
2023-02-26T11:30:47.877Z,4.07
2023-02-26T11:33:20.727Z,3.78
2023-02-26T11:36:02.900Z,3.64
2023-02-26T11:38:52.266Z,3.74
2023-02-26T11:41:24.027Z,4.04
2023-02-26T11:44:04.399Z,4.30
2023-02-26T11:46:33.628Z,4.65
2023-02-26T11:49:04.137Z,4.92
2023-02-26T11:51:38.793Z,5.05
2023-02-26T11:54:27.270Z,5.14
2023-02-26T11:57:06.354Z,5.07
2023-02-26T12:00:00.804Z,5.00
2023-02-26T12:02:59.944Z,5.22
2023-02-26T12:05:30.143Z,5.17
2023-02-26T12:07:59.010Z,5.40
2023-02-26T12:10:47.460Z,5.37
2023-02-26T12:13:25.371Z,5.21
2023-02-26T12:16:03.947Z,4.90
2023-02-26T12:18:58.530Z,5.05
2023-02-26T12:22:17.749Z,5.06
2023-02-26T12:25:15.740Z,5.61
2023-02-26T12:28:15.704Z,5.26
2023-02-26T12:31:28.836Z,5.32
2023-02-26T12:34:33.733Z,5.54
2023-02-26T12:37:32.419Z,5.42
2023-02-26T12:40:24.080Z,5.33
2023-02-26T12:43:03.486Z,5.43
2023-02-26T12:45:58.946Z,5.06
2023-02-26T12:48:57.424Z,5.35
2023-02-26T12:51:42.126Z,5.64
2023-02-26T12:54:38.641Z,5.42
2023-02-26T12:57:56.807Z,5.09
2023-02-26T13:00:58.608Z,5.19
2023-02-26T13:04:06.902Z,5.30
2023-02-26T13:06:59.480Z,5.04
2023-02-26T13:09:40.218Z,4.85
2023-02-26T13:12:29.455Z,4.75
2023-02-26T13:15:11.396Z,4.78
2023-02-26T13:17:55.641Z,4.47
2023-02-26T13:20:32.086Z,4.74
2023-02-26T13:23:13.643Z,4.71
2023-02-26T13:25:57.746Z,4.90
2023-02-26T13:28:41.159Z,4.88
2023-02-26T13:31:20.795Z,5.18
2023-02-26T13:34:01.730Z,4.85
2023-02-26T13:36:49.770Z,4.87
2023-02-26T13:39:53.848Z,4.98
2023-02-26T13:42:38.514Z,4.84
2023-02-26T13:45:36.978Z,4.84
2023-02-26T13:48:22.130Z,4.80
2023-02-26T13:51:04.212Z,4.72
2023-02-26T13:53:59.364Z,4.77
2023-02-26T13:56:57.676Z,4.67
2023-02-26T13:59:38.801Z,4.78
2023-02-26T14:02:41.340Z,4.89
2023-02-26T14:05:40.420Z,4.79
2023-02-26T14:08:34.861Z,4.66
2023-02-26T14:11:46.158Z,4.67
2023-02-26T14:14:32.904Z,4.80
2023-02-26T14:17:32.882Z,4.84
2023-02-26T14:20:28.817Z,4.92
2023-02-26T14:23:32.356Z,4.74
2023-02-26T14:26:16.494Z,4.59
2023-02-26T14:29:00.308Z,4.49
2023-02-26T14:31:55.685Z,4.39
2023-02-26T14:34:36.042Z,4.11
2023-02-26T14:37:09.751Z,4.23
2023-02-26T14:39:48.926Z,4.06
2023-02-26T14:42:41.288Z,3.89
2023-02-26T14:45:38.011Z,3.97
2023-02-26T14:48:22.876Z,4.03
2023-02-26T14:51:13.717Z,4.18
2023-02-26T14:54:11.746Z,4.26
2023-02-26T14:57:01.004Z,4.10
2023-02-26T15:00:09.558Z,4.10
2023-02-26T15:02:50.873Z,4.22
2023-02-26T15:05:59.447Z,4.22
2023-02-26T15:08:52.790Z,4.15
2023-02-26T15:11:56.142Z,4.17
2023-02-26T15:15:06.351Z,4.11
2023-02-26T15:17:51.230Z,3.87
2023-02-26T15:20:29.305Z,4.13
2023-02-26T15:23:39.087Z,4.12
2023-02-26T15:26:18.619Z,4.07
2023-02-26T15:28:49.512Z,4.25
2023-02-26T15:31:40.689Z,4.03
2023-02-26T15:34:15.692Z,4.09
2023-02-26T15:36:53.253Z,3.88
2023-02-26T15:39:29.248Z,4.01
2023-02-26T15:41:59.679Z,3.89
2023-02-26T15:44:33.480Z,3.85
2023-02-26T15:47:30.793Z,3.95
2023-02-26T15:50:03.050Z,4.07
2023-02-26T15:52:44.690Z,3.99
2023-02-26T15:55:20.181Z,4.07
2023-02-26T15:57:56.237Z,3.95
2023-02-26T16:00:28.525Z,4.09
2023-02-26T16:03:05.693Z,4.25
2023-02-26T16:05:37.983Z,4.12
2023-02-26T16:08:19.955Z,3.95
2023-02-26T16:10:50.693Z,3.96
2023-02-26T16:13:32.114Z,4.00
2023-02-26T16:16:08.651Z,3.98
2023-02-26T16:18:48.198Z,4.14
2023-02-26T16:21:25.335Z,3.86
2023-02-26T16:23:59.021Z,3.81
2023-02-26T16:26:39.902Z,3.91
2023-02-26T16:29:21.367Z,3.91
2023-02-26T16:31:58.278Z,3.84
2023-02-26T16:34:58.051Z,3.69
2023-02-26T16:37:38.228Z,3.75
2023-02-26T16:40:26.418Z,3.93
2023-02-26T16:43:08.768Z,3.93
2023-02-26T16:45:51.417Z,3.83
2023-02-26T16:48:28.907Z,3.76
2023-02-26T16:51:21.796Z,3.82
2023-02-26T16:54:06.894Z,3.86
2023-02-26T16:56:42.221Z,3.94
2023-02-26T16:59:35.281Z,3.66
2023-02-26T17:02:14.522Z,3.70
2023-02-26T17:04:53.880Z,3.94
2023-02-26T17:08:00.828Z,3.68
2023-02-26T17:10:41.257Z,3.83
2023-02-26T17:13:20.331Z,3.91
2023-02-26T17:15:57.942Z,3.66
2023-02-26T17:18:33.052Z,3.65
2023-02-26T17:21:10.571Z,3.55
2023-02-26T17:23:47.276Z,3.64
2023-02-26T17:26:20.244Z,3.76
2023-02-26T17:28:57.342Z,3.63
2023-02-26T17:31:32.919Z,3.85
2023-02-26T17:34:11.452Z,3.74
2023-02-26T17:37:00.403Z,3.63
2023-02-26T17:39:54.004Z,3.67
2023-02-26T17:42:28.334Z,3.76
2023-02-26T17:45:13.822Z,3.84
2023-02-26T17:47:50.671Z,3.71
2023-02-26T17:50:31.090Z,3.81
2023-02-26T17:53:14.713Z,3.75
2023-02-26T17:56:03.107Z,3.75
2023-02-26T17:58:35.285Z,3.71
2023-02-26T18:01:20.117Z,3.56
2023-02-26T18:04:02.055Z,3.55
2023-02-26T18:06:39.335Z,3.77
2023-02-26T18:12:21.320Z,3.57
2023-02-26T18:14:58.568Z,3.50
2023-02-26T18:17:34.321Z,3.28
2023-02-26T18:20:14.630Z,3.39
2023-02-26T18:22:56.975Z,3.26
2023-02-26T18:25:34.210Z,3.54
2023-02-26T18:28:17.573Z,3.54
2023-02-26T18:31:02.727Z,3.48
2023-02-26T18:33:47.961Z,3.40
2023-02-26T18:36:35.245Z,3.30
2023-02-26T18:39:13.487Z,3.54
2023-02-26T18:41:44.829Z,3.42
2023-02-26T18:44:20.439Z,3.50
2023-02-26T18:46:52.938Z,3.22
2023-02-26T18:49:30.004Z,3.17
2023-02-26T18:52:00.796Z,3.07
2023-02-26T18:54:32.447Z,3.29
2023-02-26T18:57:09.727Z,3.21
2023-02-26T18:59:45.903Z,3.17
2023-02-26T19:02:22.774Z,3.20
2023-02-26T19:04:55.818Z,3.16
2023-02-26T19:07:34.948Z,3.08
2023-02-26T19:10:12.012Z,2.94
2023-02-26T19:12:53.888Z,3.10
2023-02-26T19:16:00.113Z,3.13
2023-02-26T19:18:31.230Z,3.22
2023-02-26T19:21:12.201Z,3.42
2023-02-26T19:23:45.270Z,3.19
2023-02-26T19:26:24.933Z,3.25
2023-02-26T19:28:55.475Z,3.38
2023-02-26T19:31:33.596Z,3.39
2023-02-26T19:34:05.528Z,3.44
2023-02-26T19:36:48.403Z,3.27
2023-02-26T19:39:24.586Z,3.14
2023-02-26T19:42:13.147Z,3.25
2023-02-26T19:44:48.705Z,2.98
2023-02-26T19:47:31.167Z,3.03
2023-02-26T19:50:08.434Z,3.08
2023-02-26T19:53:11.261Z,3.05
2023-02-26T19:55:54.005Z,2.99
2023-02-26T19:58:36.840Z,3.14
2023-02-26T20:01:17.265Z,3.37
2023-02-26T20:04:09.658Z,3.05
2023-02-26T20:06:54.693Z,3.08
2023-02-26T20:09:33.037Z,3.13
2023-02-26T20:12:09.200Z,3.23
2023-02-26T20:14:46.806Z,2.97
2023-02-26T20:17:30.164Z,2.96
2023-02-26T20:20:10.431Z,3.08
2023-02-26T20:22:54.234Z,2.89
2023-02-26T20:25:26.174Z,2.77
2023-02-26T20:28:10.592Z,2.98
2023-02-26T20:30:43.510Z,3.08
2023-02-26T20:33:17.432Z,2.90
2023-02-26T20:36:06.473Z,2.90
2023-02-26T20:38:50.705Z,2.88
2023-02-26T20:41:31.921Z,2.89
2023-02-26T20:44:13.950Z,3.27
2023-02-26T20:46:59.096Z,3.20
2023-02-26T20:49:37.194Z,2.97
2023-02-26T20:52:21.964Z,2.73
2023-02-26T20:55:04.636Z,2.56
2023-02-26T20:57:44.735Z,2.63
2023-02-26T21:00:17.443Z,2.90
2023-02-26T21:02:59.601Z,2.89
2023-02-26T21:05:39.399Z,3.06
2023-02-26T21:08:14.712Z,3.03
2023-02-26T21:10:44.337Z,2.86
2023-02-26T21:13:22.539Z,2.88
2023-02-26T21:15:54.219Z,3.01
2023-02-26T21:18:37.219Z,2.95
2023-02-26T21:21:19.565Z,2.94
2023-02-26T21:24:08.609Z,2.98
2023-02-26T21:26:43.825Z,2.79
2023-02-26T21:29:13.205Z,2.86
2023-02-26T21:31:44.003Z,2.82
2023-02-26T21:34:33.220Z,2.71
2023-02-26T21:37:17.930Z,2.90
2023-02-26T21:39:54.336Z,2.87
2023-02-26T21:42:28.427Z,2.91
2023-02-26T21:45:11.334Z,2.85
2023-02-26T21:47:53.329Z,3.07
2023-02-26T21:50:26.375Z,2.76
2023-02-26T21:53:02.271Z,2.75
2023-02-26T21:55:43.848Z,2.79
2023-02-26T21:58:21.256Z,2.74
2023-02-26T22:00:57.229Z,2.85
2023-02-26T22:03:30.036Z,2.75
2023-02-26T22:06:10.962Z,2.87
2023-02-26T22:08:41.888Z,2.69
2023-02-26T22:11:16.883Z,2.98
2023-02-26T22:13:48.829Z,2.81
2023-02-26T22:16:19.993Z,2.69
2023-02-26T22:18:57.304Z,2.64
2023-02-26T22:21:30.724Z,2.79
2023-02-26T22:24:03.924Z,2.75
2023-02-26T22:26:47.126Z,2.65
2023-02-26T22:29:29.144Z,2.85
2023-02-26T22:32:01.546Z,2.67
2023-02-26T22:35:01.155Z,2.84
2023-02-26T22:37:33.043Z,2.84
2023-02-26T22:40:01.763Z,2.66
2023-02-26T22:42:35.966Z,2.70
2023-02-26T22:45:17.289Z,2.68
2023-02-26T22:47:48.306Z,2.60
2023-02-26T22:50:24.444Z,2.65
2023-02-26T22:52:55.137Z,2.68
2023-02-26T22:55:24.147Z,2.59
2023-02-26T22:58:05.301Z,2.58
2023-02-26T23:00:36.322Z,2.62
2023-02-26T23:03:06.067Z,2.67
2023-02-26T23:05:45.723Z,2.56
2023-02-26T23:08:23.037Z,2.83
2023-02-26T23:10:58.890Z,2.54
2023-02-26T23:13:34.340Z,2.74
2023-02-26T23:16:07.334Z,2.78
2023-02-26T23:18:38.072Z,2.39
2023-02-26T23:21:07.979Z,2.52
2023-02-26T23:23:42.451Z,2.65
2023-02-26T23:26:18.497Z,2.77
2023-02-26T23:28:54.095Z,2.74
2023-02-26T23:31:22.692Z,2.75
2023-02-26T23:33:56.848Z,2.78
2023-02-26T23:36:28.415Z,2.57
2023-02-26T23:38:57.693Z,2.46
2023-02-26T23:41:39.282Z,2.61
2023-02-26T23:44:28.336Z,2.53
2023-02-26T23:47:05.280Z,2.33
2023-02-26T23:49:46.279Z,2.61
2023-02-26T23:52:18.509Z,2.60
2023-02-26T23:55:05.198Z,2.57
2023-02-26T23:57:34.844Z,2.54
